| time (UTC) | temp C | wind direction | speed KPH | gust KPH | rain 1hr cm | rain 24hr cm | rain mn cm | humidity % | barometer mb |
| 20260506202725 | 10 | 324 | 1.6 | 3.2 | 0.00 | 1.32 | 1.32 | 99 | 995.7 |
| 20260506202221 | 10 | 229 | 3.2 | 8.0 | 0.05 | 1.32 | 1.32 | 99 | 995.6 |
| 20260506201718 | 10 | 354 | 0.0 | 3.2 | 0.05 | 1.32 | 1.32 | 99 | 995.7 |
| 20260506201215 | 11 | 305 | 1.6 | 4.8 | 0.00 | 1.30 | 1.30 | 99 | 995.5 |
| 20260506200711 | 11 | 35 | 0.0 | 3.2 | 0.05 | 1.30 | 1.30 | 99 | 995.4 |
| 20260506200208 | 11 | 211 | 0.0 | 6.4 | 0.05 | 1.30 | 1.30 | 99 | 995.5 |
| 20260506195704 | 11 | 325 | 3.2 | 4.8 | 0.00 | 1.30 | 1.30 | 99 | 995.7 |
| 20260506195200 | 11 | 318 | 1.6 | 4.8 | 0.05 | 1.30 | 1.30 | 99 | 995.6 |
| 20260506194658 | 11 | 286 | 1.6 | 3.2 | 0.05 | 1.30 | 1.30 | 99 | 995.4 |
| 20260506194154 | 11 | 343 | 3.2 | 4.8 | 0.05 | 1.27 | 1.27 | 99 | 995.4 |
| 20260506193652 | 11 | 319 | 3.2 | 6.4 | 0.05 | 1.27 | 1.27 | 99 | 995.4 |
| 20260506193149 | 11 | 338 | 4.8 | 9.7 | 0.00 | 1.27 | 1.27 | 99 | 995.2 |
| 20260506192645 | 11 | 246 | 1.6 | 8.0 | 0.00 | 1.27 | 1.27 | 99 | 995.4 |
| 20260506192141 | 11 | 345 | 3.2 | 4.8 | 0.00 | 1.27 | 1.27 | 99 | 995.3 |
| 20260506191639 | 12 | 305 | 3.2 | 4.8 | 0.00 | 1.27 | 1.27 | 99 | 995.3 |
| 20260506191135 | 12 | 240 | 0.0 | 6.4 | 0.00 | 1.27 | 1.27 | 99 | 995.2 |
| 20260506190632 | 13 | 318 | 3.2 | 4.8 | 0.00 | 1.27 | 1.27 | 99 | 995.2 |
| 20260506190129 | 13 | 319 | 1.6 | 4.8 | 0.00 | 1.27 | 1.27 | 99 | 995.1 |
| 20260506185626 | 13 | 341 | 3.2 | 3.2 | 0.00 | 1.27 | 1.27 | 99 | 995.1 |
| 20260506185122 | 13 | 286 | 1.6 | 4.8 | 0.05 | 1.27 | 1.27 | 99 | 995.0 |
| 20260506184620 | 13 | 329 | 3.2 | 3.2 | 0.13 | 1.27 | 1.27 | 99 | 994.9 |
| 20260506184117 | 13 | 208 | 3.2 | 6.4 | 0.18 | 1.27 | 1.27 | 99 | 995.0 |
| 20260506183614 | 14 | 242 | 3.2 | 4.8 | 0.05 | 1.24 | 1.24 | 99 | 994.8 |
| 20260506183109 | 14 | 96 | 3.2 | 3.2 | 0.00 | 1.22 | 1.22 | 99 | 994.8 |
| 20260506182607 | 14 | 134 | 3.2 | 3.2 | 0.00 | 1.22 | 1.22 | 99 | 994.7 |
| 20260506182104 | 14 | 128 | 3.2 | 4.8 | 0.00 | 1.22 | 1.22 | 99 | 994.8 |
| 20260506181602 | 14 | 123 | 3.2 | 3.2 | 0.00 | 1.22 | 1.22 | 99 | 994.8 |
| 20260506181059 | 13 | 132 | 3.2 | 3.2 | 0.05 | 1.22 | 1.22 | 99 | 995.0 |
| 20260506180556 | 13 | 169 | 3.2 | 3.2 | 0.18 | 1.22 | 1.22 | 99 | 995.1 |
| 20260506180053 | 13 | 160 | 1.6 | 1.6 | 0.18 | 1.22 | 1.22 | 99 | 995.3 |
| 20260506175549 | 13 | 110 | 0.0 | 3.2 | 0.05 | 1.19 | 1.19 | 99 | 995.3 |
| 20260506175045 | 13 | 115 | 1.6 | 4.8 | 0.13 | 1.19 | 1.19 | 99 | 995.1 |
| 20260506174544 | 13 | 269 | 0.0 | 3.2 | 0.13 | 1.19 | 1.19 | 99 | 995.3 |
| 20260506174039 | 13 | 246 | 0.0 | 1.6 | 0.18 | 1.17 | 1.17 | 99 | 995.3 |
| 20260506173537 | 13 | 111 | 0.0 | 3.2 | 0.05 | 1.14 | 1.14 | 99 | 995.4 |
| 20260506173034 | 13 | 99 | 1.6 | 3.2 | 0.05 | 1.14 | 1.14 | 99 | 995.3 |
| 20260506172532 | 13 | 94 | 1.6 | 4.8 | 0.13 | 1.14 | 1.14 | 99 | 995.4 |
| 20260506172028 | 12 | 173 | 0.0 | 4.8 | 0.13 | 1.14 | 1.14 | 99 | 995.4 |
| 20260506171525 | 13 | 214 | 0.0 | 4.8 | 0.18 | 1.12 | 1.12 | 99 | 995.4 |
| 20260506171023 | 13 | 111 | 3.2 | 3.2 | 0.23 | 1.12 | 1.12 | 99 | 995.4 |
| 20260506170520 | 12 | 158 | 3.2 | 4.8 | 0.18 | 1.07 | 1.07 | 99 | 995.6 |
| 20260506170017 | 12 | 162 | 1.6 | 6.4 | 0.23 | 1.07 | 1.07 | 99 | 995.5 |
| 20260506165515 | 12 | 123 | 3.2 | 3.2 | 0.13 | 1.04 | 1.04 | 99 | 995.5 |
| 20260506165006 | 12 | 122 | 3.2 | 4.8 | 0.13 | 1.04 | 1.04 | 99 | 995.6 |
| 20260506164503 | 12 | 113 | 3.2 | 6.4 | 0.18 | 1.02 | 1.02 | 99 | 995.6 |
| 20260506164001 | 12 | 146 | 6.4 | 6.4 | 0.23 | 1.02 | 1.02 | 99 | 995.7 |
| 20260506163456 | 12 | 86 | 6.4 | 6.4 | 0.23 | 0.99 | 0.99 | 99 | 995.8 |
| 20260506162950 | 12 | 110 | 3.2 | 4.8 | 0.23 | 0.97 | 0.97 | 99 | 996.2 |
| 20260506162448 | 12 | 110 | 3.2 | 4.8 | 0.23 | 0.94 | 0.94 | 99 | 995.7 |
| 20260506161945 | 12 | 133 | 4.8 | 6.4 | 0.23 | 0.94 | 0.94 | 99 | 996.0 |
| 20260506161443 | 12 | 113 | 3.2 | 9.7 | 0.18 | 0.91 | 0.91 | 99 | 995.7 |
| 20260506160935 | 12 | 78 | 3.2 | 6.4 | 0.13 | 0.89 | 0.89 | 99 | 995.7 |
| 20260506160432 | 12 | 118 | 4.8 | 9.7 | 0.13 | 0.89 | 0.89 | 99 | 995.7 |
| 20260506155929 | 12 | 135 | 6.4 | 6.4 | 0.05 | 0.86 | 0.86 | 99 | 996.0 |
| 20260506155426 | 12 | 118 | 3.2 | 6.4 | 0.13 | 0.86 | 0.86 | 99 | 995.8 |
| 20260506153548 | 12 | 108 | 4.8 | 6.4 | 0.18 | 0.81 | 0.81 | 99 | 996.0 |
| 20260506153046 | 12 | 116 | 3.2 | 8.0 | 0.23 | 0.81 | 0.81 | 99 | 996.6 |
| 20260506152542 | 12 | 113 | 3.2 | 6.4 | 0.23 | 0.79 | 0.79 | 99 | 996.6 |
| 20260506152041 | 12 | 101 | 1.6 | 6.4 | 0.23 | 0.76 | 0.76 | 99 | 996.5 |
| 20260506151538 | 12 | 109 | 3.2 | 6.4 | 0.18 | 0.74 | 0.74 | 99 | 996.6 |
| 20260506151035 | 12 | 132 | 6.4 | 6.4 | 0.18 | 0.71 | 0.71 | 99 | 996.7 |
| 20260506150531 | 11 | 134 | 3.2 | 6.4 | 0.18 | 0.71 | 0.71 | 99 | 996.5 |
| 20260506150029 | 12 | 133 | 4.8 | 6.4 | 0.18 | 0.69 | 0.69 | 99 | 996.8 |
| 20260506145525 | 12 | 108 | 3.2 | 3.2 | 0.23 | 0.66 | 0.66 | 99 | 996.7 |
| 20260506145023 | 12 | 75 | 0.0 | 3.2 | 0.18 | 0.66 | 0.66 | 99 | 996.8 |
| 20260506144519 | 12 | 63 | 0.0 | 1.6 | 0.18 | 0.64 | 0.64 | 99 | 996.9 |
| 20260506144017 | 11 | 69 | 0.0 | 3.2 | 0.30 | 0.61 | 0.61 | 99 | 996.9 |
| 20260506143514 | 11 | 116 | 1.6 | 4.8 | 0.30 | 0.61 | 0.61 | 99 | 997.3 |
| 20260506143013 | 11 | 82 | 1.6 | 4.8 | 0.36 | 0.58 | 0.58 | 99 | 997.2 |
| 20260506142510 | 11 | 87 | 3.2 | 3.2 | 0.43 | 0.56 | 0.56 | 99 | 997.4 |
| 20260506142008 | 11 | 73 | 6.4 | 6.4 | 0.36 | 0.51 | 0.51 | 99 | 997.6 |
| 20260506141506 | 11 | 130 | 3.2 | 6.4 | 0.30 | 0.48 | 0.48 | 99 | 997.6 |
| 20260506141004 | 11 | 112 | 3.2 | 6.4 | 0.23 | 0.46 | 0.46 | 99 | 997.5 |
| 20260506140501 | 11 | 128 | 6.4 | 6.4 | 0.23 | 0.43 | 0.43 | 99 | 997.6 |
| 20260506135957 | 11 | 130 | 4.8 | 6.4 | 0.18 | 0.41 | 0.41 | 99 | 997.5 |
| 20260506135455 | 11 | 112 | 4.8 | 6.4 | 0.18 | 0.38 | 0.38 | 99 | 997.8 |
| 20260506134951 | 11 | 128 | 4.8 | 6.4 | 0.13 | 0.38 | 0.38 | 99 | 997.5 |
| 20260506134447 | 11 | 49 | 3.2 | 3.2 | 0.18 | 0.36 | 0.36 | 99 | 997.5 |
| 20260506133943 | 11 | 86 | 1.6 | 6.4 | 0.30 | 0.36 | 0.36 | 99 | 997.5 |
| 20260506133441 | 11 | 114 | 3.2 | 4.8 | 0.23 | 0.33 | 0.33 | 99 | 997.3 |
| 20260506132937 | 11 | 96 | 3.2 | 6.4 | 0.13 | 0.30 | 0.30 | 99 | 997.4 |
| 20260506132434 | 11 | 169 | 3.2 | 6.4 | 0.05 | 0.28 | 0.28 | 99 | 997.5 |
| 20260506131932 | 11 | 131 | 3.2 | 3.2 | 0.05 | 0.28 | 0.28 | 99 | 997.2 |
| 20260506131428 | 11 | 183 | 3.2 | 4.8 | 0.05 | 0.28 | 0.28 | 99 | 997.1 |
| 20260506130925 | 11 | 99 | 4.8 | 4.8 | 0.05 | 0.28 | 0.28 | 99 | 996.9 |
| 20260506130422 | 11 | 89 | 3.2 | 4.8 | 0.05 | 0.25 | 0.25 | 99 | 997.3 |
| 20260506125920 | 11 | 178 | 4.8 | 4.8 | 0.13 | 0.25 | 0.25 | 99 | 997.4 |
| 20260506125418 | 11 | 154 | 3.2 | 6.4 | 0.05 | 0.25 | 0.25 | 99 | 997.2 |
| 20260506124916 | 11 | 150 | 1.6 | 3.2 | 0.05 | 0.23 | 0.23 | 99 | 997.5 |
| 20260506124413 | 11 | 81 | 4.8 | 4.8 | 0.13 | 0.23 | 0.23 | 99 | 997.5 |
| 20260506123911 | 11 | 115 | 3.2 | 4.8 | 0.13 | 0.23 | 0.23 | 99 | 997.5 |
| 20260506123409 | 11 | 105 | 3.2 | 4.8 | 0.18 | 0.23 | 0.23 | 99 | 997.5 |
| 20260506122906 | 11 | 95 | 3.2 | 4.8 | 0.18 | 0.20 | 0.20 | 99 | 997.6 |
| 20260506122402 | 11 | 89 | 3.2 | 4.8 | 0.23 | 0.18 | 0.18 | 99 | 997.9 |
| 20260506121901 | 11 | 122 | 4.8 | 4.8 | 0.18 | 0.18 | 0.18 | 99 | 998.0 |
| 20260506121357 | 11 | 138 | 6.4 | 6.4 | 0.18 | 0.15 | 0.15 | 99 | 997.8 |
| 20260506120854 | 11 | 133 | 4.8 | 4.8 | 0.23 | 0.15 | 0.15 | 98 | 997.8 |
| 20260506120352 | 11 | 129 | 0.0 | 4.8 | 0.13 | 0.10 | 0.10 | 98 | 997.8 |
| 20260506115849 | 11 | 96 | 0.0 | 4.8 | 0.05 | 0.10 | 0.10 | 98 | 998.0 |
| 20260506115347 | 10 | 175 | 1.6 | 4.8 | 0.05 | 0.08 | 0.08 | 98 | 998.2 |
| 20260506114845 | 11 | 75 | 1.6 | 6.4 | 0.05 | 0.08 | 0.08 | 98 | 998.0 |
| 20260506114342 | 10 | 87 | 4.8 | 4.8 | 0.13 | 0.08 | 0.08 | 98 | 998.0 |
| 20260506113841 | 10 | 282 | 0.0 | 3.2 | 0.13 | 0.05 | 0.05 | 98 | 998.1 |
| 20260506113338 | 10 | 41 | 1.6 | 3.2 | 0.13 | 0.05 | 0.05 | 98 | 997.9 |
| 20260506112835 | 10 | 61 | 0.0 | 3.2 | 0.05 | 0.05 | 0.05 | 98 | 997.9 |
| 20260506112332 | 10 | 123 | 1.6 | 3.2 | 0.05 | 0.03 | 0.03 | 98 | 997.8 |
| 20260506111829 | 10 | 19 | 3.2 | 3.2 | 0.05 | 0.03 | 0.03 | 98 | 997.7 |
| 20260506111328 | 10 | 49 | 0.0 | 3.2 | 0.00 | 0.03 | 0.03 | 98 | 998.0 |
| 20260506110825 | 10 | 42 | 0.0 | 3.2 | 0.05 | 0.03 | 0.03 | 98 | 997.6 |
| 20260506110322 | 10 | 180 | 1.6 | 4.8 | 0.05 | 0.03 | 0.03 | 98 | 997.7 |
| 20260506105819 | 10 | 125 | 1.6 | 3.2 | 0.00 | 0.00 | 0.00 | 97 | 997.5 |
| 20260506105315 | 10 | 115 | 3.2 | 4.8 | 0.00 | 0.00 | 0.00 | 97 | 997.6 |
| 20260506104812 | 10 | 81 | 0.0 | 3.2 | 0.00 | 0.00 | 0.00 | 97 | 997.8 |
| 20260506104310 | 10 | 181 | 3.2 | 3.2 | 0.00 | 0.00 | 0.00 | 97 | 998.0 |
| 20260506103808 | 10 | 141 | 1.6 | 3.2 | 0.05 | 0.00 | 0.00 | 97 | 997.9 |
| 20260506103305 | 10 | 51 | 1.6 | 3.2 | 0.05 | 0.00 | 0.00 | 97 | 997.7 |
| 20260506102802 | 10 | 135 | 0.0 | 4.8 | 0.00 | 0.00 | 0.00 | 97 | 997.7 |
| 20260506102300 | 10 | 355 | 3.2 | 4.8 | 0.00 | 0.00 | 0.00 | 96 | 997.9 |
| 20260506101757 | 10 | 70 | 4.8 | 6.4 | 0.00 | 0.00 | 0.00 | 96 | 997.7 |
| 20260506101253 | 10 | 171 | 0.0 | 3.2 | 0.00 | 0.00 | 0.00 | 96 | 997.9 |
| 20260506100751 | 10 | 116 | 0.0 | 4.8 | 0.00 | 0.00 | 0.00 | 96 | 998.0 |
| 20260506100249 | 10 | 7 | 4.8 | 4.8 | 0.00 | 0.00 | 0.00 | 96 | 997.7 |
| 20260506095747 | 10 | 303 | 1.6 | 3.2 | 0.00 | 0.00 | 0.00 | 96 | 997.8 |
| 20260506095244 | 10 | 56 | 0.0 | 3.2 | 0.00 | 0.00 | 0.00 | 96 | 997.5 |
| 20260506094740 | 10 | 21 | 3.2 | 4.8 | 0.00 | 0.00 | 0.00 | 96 | 997.5 |
| 20260506094239 | 10 | 37 | 3.2 | 4.8 | 0.00 | 0.00 | 0.00 | 96 | 997.4 |
| 20260506093737 | 10 | 76 | 0.0 | 3.2 | 0.00 | 0.00 | 0.00 | 96 | 997.3 |
| 20260506093234 | 10 | 89 | 0.0 | 3.2 | 0.00 | 0.00 | 0.00 | 96 | 997.5 |
| 20260506092732 | 10 | 41 | 3.2 | 4.8 | 0.00 | 0.00 | 0.00 | 95 | 997.3 |
| 20260506092230 | 10 | 36 | 3.2 | 6.4 | 0.00 | 0.00 | 0.00 | 95 | 997.1 |
| 20260506091727 | 10 | 78 | 1.6 | 3.2 | 0.00 | 0.00 | 0.00 | 95 | 997.3 |
| 20260506091224 | 10 | 70 | 3.2 | 4.8 | 0.00 | 0.00 | 0.00 | 95 | 997.1 |
| 20260506090722 | 10 | 45 | 3.2 | 4.8 | 0.00 | 0.00 | 0.00 | 95 | 997.2 |
| 20260506090218 | 10 | 78 | 3.2 | 4.8 | 0.00 | 0.00 | 0.00 | 95 | 997.5 |
| 20260506085715 | 10 | 21 | 3.2 | 4.8 | 0.00 | 0.00 | 0.00 | 95 | 997.5 |
| 20260506085211 | 10 | 32 | 3.2 | 3.2 | 0.00 | 0.00 | 0.00 | 95 | 997.6 |
| 20260506084708 | 10 | 30 | 3.2 | 4.8 | 0.00 | 0.00 | 0.00 | 95 | 997.6 |
| 20260506084204 | 10 | 84 | 1.6 | 3.2 | 0.00 | 0.00 | 0.00 | 94 | 997.5 |
| 20260506083701 | 11 | 91 | 3.2 | 4.8 | 0.00 | 0.00 | 0.00 | 94 | 997.6 |
| 20260506083159 | 11 | 63 | 3.2 | 4.8 | 0.00 | 0.00 | 0.00 | 94 | 997.9 |
| 20260506082656 | 11 | 18 | 1.6 | 4.8 | 0.00 | 0.00 | 0.00 | 94 | 998.1 |
| 20260506082151 | 11 | 40 | 3.2 | 3.2 | 0.00 | 0.00 | 0.00 | 93 | 997.7 |
| 20260506081649 | 11 | 92 | 3.2 | 4.8 | 0.00 | 0.00 | 0.00 | 93 | 997.9 |
| 20260506081147 | 11 | 46 | 3.2 | 3.2 | 0.00 | 0.00 | 0.00 | 93 | 998.0 |
| 20260506080644 | 11 | 91 | 3.2 | 3.2 | 0.00 | 0.00 | 0.00 | 93 | 998.1 |
| 20260506080141 | 11 | 53 | 3.2 | 3.2 | 0.00 | 0.00 | 0.00 | 93 | 998.1 |
| 20260506073125 | 11 | 51 | 3.2 | 3.2 | 0.00 | 0.00 | 0.00 | 92 | 998.8 |
| 20260506072621 | 11 | 82 | 3.2 | 3.2 | 0.00 | 0.00 | 0.00 | 92 | 998.5 |
| 20260506072119 | 11 | 69 | 1.6 | 3.2 | 0.00 | 0.00 | 0.00 | 92 | 998.6 |
| 20260506071617 | 11 | 26 | 3.2 | 4.8 | 0.00 | 0.00 | 0.00 | 91 | 998.5 |
| 20260506071114 | 11 | 71 | 3.2 | 4.8 | 0.00 | 0.00 | 0.00 | 91 | 998.5 |
| 20260506070611 | 11 | 14 | 3.2 | 3.2 | 0.00 | 0.00 | 0.00 | 90 | 998.5 |
| 20260506070108 | 11 | 41 | 0.0 | 3.2 | 0.00 | 0.00 | 0.00 | 90 | 998.5 |
| 20260506062045 | 12 | 321 | 0.0 | 3.2 | 0.00 | 0.00 | 0.00 | 89 | 998.8 |
| 20260506061541 | 12 | 57 | 0.0 | 0.0 | 0.00 | 0.00 | 0.00 | 89 | 998.7 |
| 20260506061039 | 12 | 46 | 1.6 | 4.8 | 0.00 | 0.00 | 0.00 | 89 | 998.8 |
| 20260506060537 | 12 | 53 | 0.0 | 6.4 | 0.00 | 0.00 | 0.00 | 89 | 998.9 |
| 20260506051006 | 12 | 276 | 3.2 | 4.8 | 0.00 | 0.00 | 0.00 | 88 | 998.7 |
| 20260506050504 | 12 | 61 | 0.0 | 3.2 | 0.00 | 0.00 | 0.00 | 88 | 998.8 |
| 20260506044954 | 12 | 207 | 1.6 | 4.8 | 0.00 | 0.00 | 0.00 | 88 | 999.1 |
| 20260506044452 | 12 | 1 | 4.8 | 4.8 | 0.00 | 0.00 | 0.00 | 89 | 999.0 |
| 20260506043948 | 12 | 355 | 3.2 | 3.2 | 0.00 | 0.00 | 0.00 | 89 | 998.8 |
| 20260506043446 | 12 | 19 | 3.2 | 6.4 | 0.00 | 0.00 | 0.00 | 88 | 998.8 |
| 20260506042943 | 12 | 330 | 4.8 | 4.8 | 0.00 | 0.00 | 0.00 | 88 | 999.2 |
| 20260506042443 | 12 | 322 | 3.2 | 6.4 | 0.00 | 0.00 | 0.00 | 87 | 999.1 |
| 20260506041940 | 12 | 30 | 1.6 | 4.8 | 0.00 | 0.00 | 0.00 | 87 | 999.4 |
| 20260506041438 | 12 | 340 | 1.6 | 8.0 | 0.00 | 0.00 | 0.00 | 87 | 999.2 |
| 20260506040935 | 13 | 344 | 6.4 | 9.7 | 0.00 | 0.00 | 0.00 | 86 | 999.1 |
| 20260506040433 | 13 | 8 | 3.2 | 8.0 | 0.00 | 0.00 | 0.00 | 86 | 999.3 |
| 20260506035928 | 13 | 350 | 4.8 | 6.4 | 0.00 | 0.08 | 0.08 | 86 | 999.4 |
| 20260506035426 | 13 | 291 | 0.0 | 6.4 | 0.00 | 0.08 | 0.08 | 86 | 999.3 |
| 20260506034922 | 13 | 304 | 4.8 | 6.4 | 0.00 | 0.08 | 0.08 | 87 | 999.2 |
| 20260506034420 | 13 | 289 | 3.2 | 6.4 | 0.00 | 0.08 | 0.08 | 87 | 999.2 |
| 20260506033917 | 13 | 277 | 1.6 | 4.8 | 0.00 | 0.08 | 0.08 | 87 | 999.1 |
| 20260506033414 | 13 | 216 | 3.2 | 3.2 | 0.00 | 0.08 | 0.08 | 86 | 999.2 |
| 20260506032911 | 13 | 310 | 4.8 | 6.4 | 0.00 | 0.08 | 0.08 | 86 | 999.3 |
| 20260506032408 | 13 | 229 | 4.8 | 11.3 | 0.00 | 0.08 | 0.08 | 87 | 999.3 |
| 20260506031904 | 13 | 0 | 3.2 | 8.0 | 0.00 | 0.08 | 0.08 | 87 | 999.2 |
| 20260506031402 | 13 | 14 | 1.6 | 6.4 | 0.00 | 0.08 | 0.08 | 87 | 999.2 |
| 20260506030859 | 13 | 313 | 4.8 | 6.4 | 0.00 | 0.08 | 0.08 | 88 | 998.9 |
| 20260506030358 | 13 | 344 | 4.8 | 6.4 | 0.00 | 0.08 | 0.08 | 88 | 998.8 |
| 20260506025854 | 14 | 326 | 6.4 | 6.4 | 0.00 | 0.08 | 0.08 | 88 | 998.9 |
| 20260506025351 | 14 | 299 | 4.8 | 4.8 | 0.00 | 0.08 | 0.08 | 88 | 998.9 |
| 20260506024848 | 14 | 242 | 8.0 | 9.7 | 0.00 | 0.08 | 0.08 | 88 | 998.8 |
| 20260506024344 | 14 | 313 | 4.8 | 9.7 | 0.00 | 0.08 | 0.08 | 89 | 998.9 |
| 20260506023840 | 15 | 314 | 4.8 | 8.0 | 0.00 | 0.08 | 0.08 | 90 | 999.1 |
| 20260506023337 | 15 | 345 | 3.2 | 6.4 | 0.00 | 0.08 | 0.08 | 91 | 998.9 |
| 20260506022834 | 15 | 276 | 3.2 | 4.8 | 0.00 | 0.08 | 0.08 | 92 | 999.0 |
| 20260506022332 | 15 | 352 | 3.2 | 6.4 | 0.00 | 0.08 | 0.08 | 93 | 998.9 |
| 20260506021830 | 15 | 354 | 3.2 | 12.9 | 0.00 | 0.08 | 0.08 | 94 | 998.9 |
| 20260506021327 | 15 | 334 | 3.2 | 4.8 | 0.00 | 0.08 | 0.08 | 95 | 998.8 |
| 20260506020823 | 15 | 283 | 1.6 | 4.8 | 0.00 | 0.08 | 0.08 | 96 | 998.9 |
| 20260506020321 | 15 | 228 | 3.2 | 8.0 | 0.00 | 0.08 | 0.08 | 96 | 998.9 |
| 20260506015819 | 15 | 231 | 3.2 | 9.7 | 0.00 | 0.08 | 0.08 | 97 | 998.6 |
| 20260506015316 | 15 | 26 | 1.6 | 4.8 | 0.00 | 0.08 | 0.08 | 97 | 998.4 |
| 20260506014812 | 15 | 306 | 1.6 | 3.2 | 0.00 | 0.08 | 0.08 | 97 | 998.1 |
| 20260506014309 | 15 | 0 | 1.6 | 4.8 | 0.00 | 0.08 | 0.08 | 97 | 998.0 |
| 20260506013806 | 15 | 35 | 3.2 | 6.4 | 0.00 | 0.08 | 0.08 | 97 | 998.1 |
| 20260506013303 | 15 | 13 | 3.2 | 6.4 | 0.00 | 0.08 | 0.08 | 97 | 998.0 |
| 20260506012800 | 15 | 71 | 4.8 | 4.8 | 0.00 | 0.08 | 0.08 | 97 | 997.6 |
| 20260506012257 | 15 | 12 | 3.2 | 6.4 | 0.00 | 0.08 | 0.08 | 97 | 997.8 |
| 20260506011754 | 15 | 56 | 6.4 | 6.4 | 0.00 | 0.08 | 0.08 | 96 | 997.5 |
| 20260506011250 | 15 | 58 | 3.2 | 4.8 | 0.00 | 0.08 | 0.08 | 96 | 997.4 |
| 20260506010748 | 15 | 64 | 3.2 | 4.8 | 0.00 | 0.08 | 0.08 | 96 | 997.3 |
| 20260506010246 | 15 | 58 | 4.8 | 4.8 | 0.00 | 0.08 | 0.08 | 95 | 997.3 |
| 20260506005743 | 15 | 60 | 3.2 | 4.8 | 0.00 | 0.08 | 0.08 | 95 | 997.2 |
| 20260506005239 | 15 | 54 | 3.2 | 4.8 | 0.00 | 0.08 | 0.08 | 95 | 997.2 |
| 20260506004735 | 15 | 37 | 4.8 | 6.4 | 0.00 | 0.08 | 0.08 | 95 | 997.0 |
| 20260506004233 | 15 | 59 | 4.8 | 6.4 | 0.05 | 0.08 | 0.08 | 95 | 997.1 |
| 20260506003729 | 15 | 71 | 3.2 | 4.8 | 0.05 | 0.08 | 0.08 | 94 | 997.3 |
| 20260506003226 | 15 | 48 | 4.8 | 8.0 | 0.00 | 0.08 | 0.08 | 94 | 997.1 |
| 20260506002721 | 15 | 66 | 1.6 | 3.2 | 0.00 | 0.08 | 0.08 | 94 | 997.5 |
| 20260506002218 | 15 | 267 | 0.0 | 3.2 | 0.00 | 0.08 | 0.08 | 94 | 997.4 |
| 20260506001714 | 15 | 10 | 3.2 | 4.8 | 0.00 | 0.08 | 0.08 | 94 | 997.0 |
| 20260506001212 | 15 | 40 | 3.2 | 4.8 | 0.00 | 0.08 | 0.08 | 94 | 997.0 |
| 20260506000708 | 15 | 31 | 4.8 | 4.8 | 0.00 | 0.08 | 0.08 | 94 | 996.9 |
| 20260506000206 | 15 | 2 | 4.8 | 8.0 | 0.00 | 0.08 | 0.08 | 94 | 996.6 |
| 20260505235703 | 15 | 25 | 4.8 | 6.4 | 0.00 | 0.08 | 0.08 | 93 | 996.4 |
| 20260505235201 | 15 | 13 | 4.8 | 6.4 | 0.00 | 0.08 | 0.08 | 93 | 996.6 |
| 20260505234657 | 16 | 42 | 4.8 | 6.4 | 0.00 | 0.08 | 0.08 | 93 | 996.6 |
| 20260505234154 | 15 | 47 | 1.6 | 8.0 | 0.00 | 0.08 | 0.08 | 93 | 996.3 |
| 20260505233651 | 16 | 68 | 3.2 | 4.8 | 0.00 | 0.08 | 0.08 | 93 | 996.5 |
| 20260505233149 | 16 | 26 | 4.8 | 6.4 | 0.00 | 0.08 | 0.08 | 94 | 996.4 |
| 20260505232646 | 16 | 59 | 1.6 | 6.4 | 0.00 | 0.08 | 0.08 | 93 | 996.3 |
| 20260505232144 | 16 | 27 | 3.2 | 4.8 | 0.00 | 0.08 | 0.08 | 93 | 996.3 |
| 20260505231640 | 16 | 56 | 4.8 | 4.8 | 0.00 | 0.08 | 0.08 | 92 | 996.2 |
| 20260505231139 | 16 | 22 | 3.2 | 4.8 | 0.00 | 0.08 | 0.08 | 91 | 996.1 |
| 20260505230637 | 16 | 349 | 1.6 | 3.2 | 0.00 | 0.08 | 0.08 | 92 | 996.0 |
| 20260505230133 | 16 | 71 | 3.2 | 3.2 | 0.00 | 0.08 | 0.08 | 93 | 995.7 |
| 20260505225629 | 16 | 83 | 3.2 | 4.8 | 0.00 | 0.08 | 0.08 | 93 | 996.2 |
| 20260505225125 | 16 | 14 | 4.8 | 6.4 | 0.00 | 0.08 | 0.08 | 93 | 995.7 |
| 20260505224622 | 16 | 71 | 4.8 | 6.4 | 0.00 | 0.08 | 0.08 | 94 | 996.1 |
| 20260505224120 | 16 | 51 | 3.2 | 6.4 | 0.00 | 0.08 | 0.08 | 94 | 995.7 |
| 20260505223617 | 16 | 62 | 4.8 | 6.4 | 0.00 | 0.08 | 0.08 | 93 | 996.0 |
| 20260505223113 | 15 | 61 | 4.8 | 6.4 | 0.00 | 0.08 | 0.08 | 93 | 996.1 |
| 20260505222609 | 16 | 10 | 3.2 | 4.8 | 0.00 | 0.08 | 0.08 | 92 | 996.0 |
| 20260505222106 | 16 | 89 | 1.6 | 3.2 | 0.05 | 0.08 | 0.08 | 92 | 996.4 |
| 20260505221603 | 16 | 312 | 0.0 | 3.2 | 0.13 | 0.08 | 0.08 | 90 | 996.3 |
| 20260505221059 | 16 | 32 | 3.2 | 3.2 | 0.05 | 0.05 | 0.05 | 89 | 996.4 |
| 20260505220556 | 16 | 50 | 1.6 | 3.2 | 0.00 | 0.05 | 0.05 | 88 | 996.7 |
| 20260505220054 | 16 | 346 | 3.2 | 4.8 | 0.00 | 0.05 | 0.05 | 88 | 996.9 |
| 20260505215552 | 16 | 88 | 0.0 | 4.8 | 0.00 | 0.05 | 0.05 | 88 | 997.2 |
| 20260505215050 | 16 | 23 | 3.2 | 14.5 | 0.05 | 0.05 | 0.05 | 88 | 997.0 |
| 20260505214548 | 16 | 321 | 4.8 | 14.5 | 0.05 | 0.05 | 0.05 | 87 | 996.8 |
| 20260505214044 | 16 | 331 | 3.2 | 11.3 | 0.05 | 0.05 | 0.05 | 85 | 997.0 |
| 20260505213542 | 17 | 333 | 3.2 | 6.4 | 0.05 | 0.05 | 0.05 | 82 | 997.2 |
| 20260505213038 | 17 | 287 | 8.0 | 8.0 | 0.00 | 0.03 | 0.03 | 79 | 997.0 |
| 20260505212535 | 17 | 182 | 6.4 | 11.3 | 0.00 | 0.03 | 0.03 | 77 | 996.8 |
| 20260505212032 | 18 | 1 | 3.2 | 6.4 | 0.00 | 0.03 | 0.03 | 75 | 996.5 |
| 20260505211529 | 18 | 249 | 0.0 | 4.8 | 0.00 | 0.03 | 0.03 | 74 | 996.3 |
| 20260505211025 | 18 | 275 | 0.0 | 6.4 | 0.00 | 0.03 | 0.03 | 74 | 995.7 |
| 20260505210522 | 18 | 52 | 0.0 | 4.8 | 0.00 | 0.03 | 0.03 | 73 | 995.2 |
| 20260505210020 | 18 | 303 | 4.8 | 12.9 | 0.00 | 0.03 | 0.03 | 70 | 995.5 |
| 20260505205518 | 19 | 187 | 11.3 | 11.3 | 0.00 | 0.03 | 0.03 | 66 | 995.7 |
| 20260505205014 | 20 | 321 | 9.7 | 27.4 | 0.00 | 0.03 | 0.03 | 64 | 995.5 |
| 20260505204512 | 21 | 327 | 16.1 | 19.3 | 0.00 | 0.03 | 0.03 | 62 | 995.5 |
| 20260505204009 | 21 | 324 | 14.5 | 17.7 | 0.00 | 0.03 | 0.03 | 61 | 995.2 |
| 20260505203506 | 22 | 14 | 6.4 | 8.0 | 0.00 | 0.03 | 0.03 | 59 | 994.9 |
| 20260505203003 | 22 | 300 | 6.4 | 9.7 | 0.00 | 0.03 | 0.03 | 58 | 994.3 |